sensor_id;sensor_type;location;lat;lon;timestamp;P1;durP1;ratioP1;P2;durP2;ratioP2
29732;SDS011;16643;43.158;25.302;2023-07-29T00:01:30;3.22;;;1.65;;
29732;SDS011;16643;43.158;25.302;2023-07-29T00:03:57;2.90;;;1.98;;
29732;SDS011;16643;43.158;25.302;2023-07-29T00:06:23;2.78;;;2.03;;
29732;SDS011;16643;43.158;25.302;2023-07-29T00:08:49;4.07;;;2.53;;
29732;SDS011;16643;43.158;25.302;2023-07-29T00:11:15;3.58;;;2.50;;
29732;SDS011;16643;43.158;25.302;2023-07-29T00:13:40;3.17;;;2.00;;
29732;SDS011;16643;43.158;25.302;2023-07-29T00:16:06;3.33;;;2.10;;
29732;SDS011;16643;43.158;25.302;2023-07-29T00:18:32;4.70;;;2.30;;
29732;SDS011;16643;43.158;25.302;2023-07-29T00:20:57;3.22;;;2.33;;
29732;SDS011;16643;43.158;25.302;2023-07-29T00:23:23;4.15;;;2.13;;
29732;SDS011;16643;43.158;25.302;2023-07-29T00:25:49;2.35;;;1.77;;
29732;SDS011;16643;43.158;25.302;2023-07-29T00:28:15;4.93;;;2.30;;
29732;SDS011;16643;43.158;25.302;2023-07-29T00:30:41;4.80;;;2.30;;
29732;SDS011;16643;43.158;25.302;2023-07-29T00:33:06;3.08;;;2.03;;
29732;SDS011;16643;43.158;25.302;2023-07-29T00:35:33;2.97;;;2.10;;
29732;SDS011;16643;43.158;25.302;2023-07-29T00:37:58;3.35;;;2.28;;
29732;SDS011;16643;43.158;25.302;2023-07-29T00:40:24;3.65;;;2.28;;
29732;SDS011;16643;43.158;25.302;2023-07-29T00:42:52;2.88;;;2.30;;
29732;SDS011;16643;43.158;25.302;2023-07-29T00:45:18;3.53;;;2.15;;
29732;SDS011;16643;43.158;25.302;2023-07-29T00:47:44;3.95;;;1.88;;
29732;SDS011;16643;43.158;25.302;2023-07-29T00:50:10;4.65;;;2.03;;
29732;SDS011;16643;43.158;25.302;2023-07-29T00:52:37;3.50;;;2.42;;
29732;SDS011;16643;43.158;25.302;2023-07-29T00:55:04;4.57;;;2.28;;
29732;SDS011;16643;43.158;25.302;2023-07-29T00:57:30;3.50;;;1.97;;
29732;SDS011;16643;43.158;25.302;2023-07-29T00:59:57;2.58;;;2.17;;
29732;SDS011;16643;43.158;25.302;2023-07-29T01:02:24;4.07;;;1.90;;
29732;SDS011;16643;43.158;25.302;2023-07-29T01:04:56;4.22;;;2.25;;
29732;SDS011;16643;43.158;25.302;2023-07-29T01:07:29;3.83;;;1.85;;
29732;SDS011;16643;43.158;25.302;2023-07-29T01:10:04;3.55;;;2.03;;
29732;SDS011;16643;43.158;25.302;2023-07-29T01:12:51;6.15;;;2.38;;
29732;SDS011;16643;43.158;25.302;2023-07-29T01:15:26;5.35;;;1.90;;
29732;SDS011;16643;43.158;25.302;2023-07-29T01:18:04;3.93;;;2.40;;
29732;SDS011;16643;43.158;25.302;2023-07-29T01:20:33;3.53;;;2.35;;
29732;SDS011;16643;43.158;25.302;2023-07-29T01:23:02;2.80;;;1.80;;
29732;SDS011;16643;43.158;25.302;2023-07-29T01:25:27;4.18;;;2.63;;
29732;SDS011;16643;43.158;25.302;2023-07-29T01:27:53;4.05;;;1.80;;
29732;SDS011;16643;43.158;25.302;2023-07-29T01:30:20;3.13;;;2.00;;
29732;SDS011;16643;43.158;25.302;2023-07-29T01:32:53;3.25;;;1.98;;
29732;SDS011;16643;43.158;25.302;2023-07-29T01:38:14;3.10;;;2.10;;
29732;SDS011;16643;43.158;25.302;2023-07-29T01:40:44;3.55;;;2.20;;
29732;SDS011;16643;43.158;25.302;2023-07-29T01:43:11;3.35;;;2.17;;
29732;SDS011;16643;43.158;25.302;2023-07-29T01:45:38;2.85;;;1.90;;
29732;SDS011;16643;43.158;25.302;2023-07-29T01:48:05;3.42;;;2.30;;
29732;SDS011;16643;43.158;25.302;2023-07-29T01:50:31;2.55;;;1.85;;
29732;SDS011;16643;43.158;25.302;2023-07-29T01:52:59;1.77;;;1.45;;
29732;SDS011;16643;43.158;25.302;2023-07-29T01:55:25;4.93;;;2.10;;
29732;SDS011;16643;43.158;25.302;2023-07-29T01:57:51;3.20;;;2.20;;
29732;SDS011;16643;43.158;25.302;2023-07-29T02:00:18;3.35;;;2.30;;
29732;SDS011;16643;43.158;25.302;2023-07-29T02:02:44;2.88;;;2.10;;
29732;SDS011;16643;43.158;25.302;2023-07-29T02:05:10;3.80;;;2.00;;
29732;SDS011;16643;43.158;25.302;2023-07-29T02:07:35;2.72;;;1.80;;
29732;SDS011;16643;43.158;25.302;2023-07-29T02:10:01;5.03;;;2.47;;
29732;SDS011;16643;43.158;25.302;2023-07-29T02:12:27;4.03;;;2.28;;
29732;SDS011;16643;43.158;25.302;2023-07-29T02:14:52;4.72;;;2.25;;
29732;SDS011;16643;43.158;25.302;2023-07-29T02:17:18;5.15;;;2.63;;
29732;SDS011;16643;43.158;25.302;2023-07-29T02:19:44;5.85;;;2.67;;
29732;SDS011;16643;43.158;25.302;2023-07-29T02:22:12;3.15;;;2.25;;
29732;SDS011;16643;43.158;25.302;2023-07-29T02:24:39;3.90;;;2.05;;
29732;SDS011;16643;43.158;25.302;2023-07-29T02:27:05;4.25;;;2.15;;
29732;SDS011;16643;43.158;25.302;2023-07-29T02:29:30;5.43;;;2.05;;
29732;SDS011;16643;43.158;25.302;2023-07-29T02:31:58;3.40;;;2.03;;
29732;SDS011;16643;43.158;25.302;2023-07-29T02:34:24;4.10;;;2.13;;
29732;SDS011;16643;43.158;25.302;2023-07-29T02:36:50;4.00;;;2.10;;
29732;SDS011;16643;43.158;25.302;2023-07-29T02:39:16;3.13;;;2.00;;
29732;SDS011;16643;43.158;25.302;2023-07-29T02:41:41;5.38;;;2.45;;
29732;SDS011;16643;43.158;25.302;2023-07-29T02:44:07;3.58;;;2.60;;
29732;SDS011;16643;43.158;25.302;2023-07-29T02:46:33;3.30;;;2.05;;
29732;SDS011;16643;43.158;25.302;2023-07-29T02:48:58;4.10;;;2.60;;
29732;SDS011;16643;43.158;25.302;2023-07-29T02:51:24;3.92;;;2.60;;
29732;SDS011;16643;43.158;25.302;2023-07-29T02:53:50;3.35;;;1.85;;
29732;SDS011;16643;43.158;25.302;2023-07-29T02:56:15;3.38;;;2.03;;
29732;SDS011;16643;43.158;25.302;2023-07-29T02:58:41;4.32;;;2.13;;
29732;SDS011;16643;43.158;25.302;2023-07-29T03:01:07;3.05;;;1.98;;
29732;SDS011;16643;43.158;25.302;2023-07-29T03:03:32;4.68;;;2.30;;
29732;SDS011;16643;43.158;25.302;2023-07-29T03:06:02;4.03;;;2.28;;
29732;SDS011;16643;43.158;25.302;2023-07-29T03:08:31;5.55;;;2.10;;
29732;SDS011;16643;43.158;25.302;2023-07-29T03:10:57;6.22;;;2.47;;
29732;SDS011;16643;43.158;25.302;2023-07-29T03:13:23;4.40;;;2.72;;
29732;SDS011;16643;43.158;25.302;2023-07-29T03:15:49;7.78;;;3.25;;
29732;SDS011;16643;43.158;25.302;2023-07-29T03:18:15;4.35;;;2.58;;
29732;SDS011;16643;43.158;25.302;2023-07-29T03:20:41;4.72;;;2.95;;
29732;SDS011;16643;43.158;25.302;2023-07-29T03:23:07;5.82;;;2.67;;
29732;SDS011;16643;43.158;25.302;2023-07-29T03:25:33;8.63;;;3.00;;
29732;SDS011;16643;43.158;25.302;2023-07-29T03:27:58;5.35;;;2.40;;
29732;SDS011;16643;43.158;25.302;2023-07-29T03:30:24;6.30;;;2.38;;
29732;SDS011;16643;43.158;25.302;2023-07-29T03:32:50;5.05;;;2.33;;
29732;SDS011;16643;43.158;25.302;2023-07-29T03:35:16;5.75;;;2.72;;
29732;SDS011;16643;43.158;25.302;2023-07-29T03:37:42;4.40;;;2.45;;
29732;SDS011;16643;43.158;25.302;2023-07-29T03:40:07;5.88;;;3.05;;
29732;SDS011;16643;43.158;25.302;2023-07-29T03:42:36;5.60;;;2.70;;
29732;SDS011;16643;43.158;25.302;2023-07-29T03:45:02;4.28;;;2.50;;
29732;SDS011;16643;43.158;25.302;2023-07-29T03:47:28;6.88;;;3.25;;
29732;SDS011;16643;43.158;25.302;2023-07-29T03:49:54;4.72;;;2.53;;
29732;SDS011;16643;43.158;25.302;2023-07-29T03:52:19;11.73;;;3.00;;
29732;SDS011;16643;43.158;25.302;2023-07-29T03:54:45;6.63;;;2.55;;
29732;SDS011;16643;43.158;25.302;2023-07-29T03:57:10;6.43;;;3.08;;
29732;SDS011;16643;43.158;25.302;2023-07-29T03:59:36;5.22;;;2.58;;
29732;SDS011;16643;43.158;25.302;2023-07-29T04:02:02;12.10;;;4.90;;
29732;SDS011;16643;43.158;25.302;2023-07-29T04:04:27;14.00;;;7.53;;
29732;SDS011;16643;43.158;25.302;2023-07-29T04:06:53;18.48;;;9.18;;
29732;SDS011;16643;43.158;25.302;2023-07-29T04:09:19;13.98;;;8.85;;
29732;SDS011;16643;43.158;25.302;2023-07-29T04:11:44;16.75;;;8.45;;
29732;SDS011;16643;43.158;25.302;2023-07-29T04:14:10;12.73;;;7.28;;
29732;SDS011;16643;43.158;25.302;2023-07-29T04:16:36;14.20;;;7.47;;
29732;SDS011;16643;43.158;25.302;2023-07-29T04:19:01;11.52;;;6.32;;
29732;SDS011;16643;43.158;25.302;2023-07-29T04:21:27;15.50;;;7.68;;
29732;SDS011;16643;43.158;25.302;2023-07-29T04:23:53;16.80;;;10.00;;
29732;SDS011;16643;43.158;25.302;2023-07-29T04:26:18;23.42;;;14.20;;
29732;SDS011;16643;43.158;25.302;2023-07-29T04:28:44;27.88;;;17.00;;
29732;SDS011;16643;43.158;25.302;2023-07-29T04:31:10;22.58;;;12.73;;
29732;SDS011;16643;43.158;25.302;2023-07-29T04:33:35;38.25;;;22.63;;
29732;SDS011;16643;43.158;25.302;2023-07-29T04:36:01;32.88;;;20.10;;
29732;SDS011;16643;43.158;25.302;2023-07-29T04:38:32;25.55;;;15.77;;
29732;SDS011;16643;43.158;25.302;2023-07-29T04:40:58;20.88;;;13.45;;
29732;SDS011;16643;43.158;25.302;2023-07-29T04:43:27;22.95;;;14.02;;
29732;SDS011;16643;43.158;25.302;2023-07-29T04:45:55;32.70;;;20.48;;
29732;SDS011;16643;43.158;25.302;2023-07-29T04:48:21;33.20;;;21.38;;
29732;SDS011;16643;43.158;25.302;2023-07-29T04:50:47;34.55;;;20.85;;
29732;SDS011;16643;43.158;25.302;2023-07-29T04:53:13;28.55;;;17.80;;
29732;SDS011;16643;43.158;25.302;2023-07-29T04:55:41;23.55;;;14.32;;
29732;SDS011;16643;43.158;25.302;2023-07-29T04:58:08;14.13;;;8.82;;
29732;SDS011;16643;43.158;25.302;2023-07-29T05:00:34;20.73;;;12.23;;
29732;SDS011;16643;43.158;25.302;2023-07-29T05:02:59;25.08;;;14.60;;
29732;SDS011;16643;43.158;25.302;2023-07-29T05:05:26;23.67;;;14.05;;
29732;SDS011;16643;43.158;25.302;2023-07-29T05:07:52;22.85;;;12.27;;
29732;SDS011;16643;43.158;25.302;2023-07-29T05:10:18;16.50;;;9.50;;
29732;SDS011;16643;43.158;25.302;2023-07-29T05:12:44;15.35;;;8.95;;
29732;SDS011;16643;43.158;25.302;2023-07-29T05:15:10;11.90;;;6.90;;
29732;SDS011;16643;43.158;25.302;2023-07-29T05:17:35;8.50;;;5.28;;
29732;SDS011;16643;43.158;25.302;2023-07-29T05:20:01;8.93;;;4.40;;
29732;SDS011;16643;43.158;25.302;2023-07-29T05:22:28;6.93;;;4.50;;
29732;SDS011;16643;43.158;25.302;2023-07-29T05:24:53;8.15;;;4.07;;
29732;SDS011;16643;43.158;25.302;2023-07-29T05:27:19;5.47;;;3.88;;
29732;SDS011;16643;43.158;25.302;2023-07-29T05:29:44;6.13;;;3.08;;
29732;SDS011;16643;43.158;25.302;2023-07-29T05:32:10;5.35;;;3.30;;
29732;SDS011;16643;43.158;25.302;2023-07-29T05:34:36;3.92;;;2.60;;
29732;SDS011;16643;43.158;25.302;2023-07-29T05:37:01;4.93;;;3.33;;
29732;SDS011;16643;43.158;25.302;2023-07-29T05:39:27;3.70;;;2.40;;
29732;SDS011;16643;43.158;25.302;2023-07-29T05:41:53;5.57;;;2.83;;
29732;SDS011;16643;43.158;25.302;2023-07-29T05:44:19;3.20;;;2.40;;
29732;SDS011;16643;43.158;25.302;2023-07-29T05:46:44;4.90;;;2.25;;
29732;SDS011;16643;43.158;25.302;2023-07-29T05:49:10;3.17;;;2.72;;
29732;SDS011;16643;43.158;25.302;2023-07-29T05:51:35;5.10;;;2.78;;
29732;SDS011;16643;43.158;25.302;2023-07-29T05:54:01;5.32;;;2.65;;
29732;SDS011;16643;43.158;25.302;2023-07-29T05:56:27;3.83;;;2.35;;
29732;SDS011;16643;43.158;25.302;2023-07-29T05:58:52;3.28;;;2.25;;
29732;SDS011;16643;43.158;25.302;2023-07-29T06:01:18;5.32;;;2.47;;
29732;SDS011;16643;43.158;25.302;2023-07-29T06:03:46;6.00;;;2.28;;
29732;SDS011;16643;43.158;25.302;2023-07-29T06:06:12;4.75;;;2.20;;
29732;SDS011;16643;43.158;25.302;2023-07-29T06:08:38;2.97;;;2.20;;
29732;SDS011;16643;43.158;25.302;2023-07-29T06:11:04;4.20;;;2.20;;
29732;SDS011;16643;43.158;25.302;2023-07-29T06:13:31;3.35;;;2.30;;
29732;SDS011;16643;43.158;25.302;2023-07-29T06:15:57;5.00;;;2.75;;
29732;SDS011;16643;43.158;25.302;2023-07-29T06:18:24;4.45;;;2.33;;
29732;SDS011;16643;43.158;25.302;2023-07-29T06:20:50;3.65;;;2.33;;
29732;SDS011;16643;43.158;25.302;2023-07-29T06:23:16;2.58;;;2.15;;
29732;SDS011;16643;43.158;25.302;2023-07-29T06:25:42;3.78;;;1.95;;
29732;SDS011;16643;43.158;25.302;2023-07-29T06:28:08;3.72;;;2.40;;
29732;SDS011;16643;43.158;25.302;2023-07-29T06:30:35;3.00;;;2.00;;
29732;SDS011;16643;43.158;25.302;2023-07-29T06:33:01;4.65;;;2.20;;
29732;SDS011;16643;43.158;25.302;2023-07-29T06:35:28;3.20;;;2.00;;
29732;SDS011;16643;43.158;25.302;2023-07-29T06:37:54;2.95;;;2.00;;
29732;SDS011;16643;43.158;25.302;2023-07-29T06:40:19;3.47;;;2.30;;
29732;SDS011;16643;43.158;25.302;2023-07-29T06:42:45;2.78;;;2.17;;
29732;SDS011;16643;43.158;25.302;2023-07-29T06:45:11;3.50;;;1.92;;
29732;SDS011;16643;43.158;25.302;2023-07-29T06:47:37;3.47;;;1.90;;
29732;SDS011;16643;43.158;25.302;2023-07-29T06:50:03;4.75;;;2.13;;
29732;SDS011;16643;43.158;25.302;2023-07-29T06:52:28;2.67;;;2.03;;
29732;SDS011;16643;43.158;25.302;2023-07-29T06:54:54;5.53;;;2.05;;
29732;SDS011;16643;43.158;25.302;2023-07-29T06:57:20;3.42;;;2.17;;
29732;SDS011;16643;43.158;25.302;2023-07-29T06:59:45;3.08;;;1.92;;
29732;SDS011;16643;43.158;25.302;2023-07-29T07:02:11;4.53;;;2.20;;
29732;SDS011;16643;43.158;25.302;2023-07-29T07:04:37;4.05;;;2.78;;
29732;SDS011;16643;43.158;25.302;2023-07-29T07:07:03;3.30;;;2.05;;
29732;SDS011;16643;43.158;25.302;2023-07-29T07:09:28;3.83;;;2.28;;
29732;SDS011;16643;43.158;25.302;2023-07-29T07:11:54;3.08;;;2.20;;
29732;SDS011;16643;43.158;25.302;2023-07-29T07:14:20;5.05;;;2.28;;
29732;SDS011;16643;43.158;25.302;2023-07-29T07:16:45;5.18;;;2.17;;
29732;SDS011;16643;43.158;25.302;2023-07-29T07:19:11;7.00;;;2.30;;
29732;SDS011;16643;43.158;25.302;2023-07-29T07:21:36;3.75;;;2.33;;
29732;SDS011;16643;43.158;25.302;2023-07-29T07:24:02;3.58;;;2.53;;
29732;SDS011;16643;43.158;25.302;2023-07-29T07:26:28;3.80;;;2.80;;
29732;SDS011;16643;43.158;25.302;2023-07-29T07:28:53;5.45;;;2.72;;
29732;SDS011;16643;43.158;25.302;2023-07-29T07:31:19;3.78;;;2.80;;
29732;SDS011;16643;43.158;25.302;2023-07-29T07:33:45;4.38;;;2.75;;
29732;SDS011;16643;43.158;25.302;2023-07-29T07:36:10;4.50;;;3.13;;
29732;SDS011;16643;43.158;25.302;2023-07-29T07:38:36;4.15;;;2.45;;
29732;SDS011;16643;43.158;25.302;2023-07-29T07:41:02;4.63;;;2.70;;
29732;SDS011;16643;43.158;25.302;2023-07-29T07:43:27;4.93;;;2.90;;
29732;SDS011;16643;43.158;25.302;2023-07-29T07:46:02;3.40;;;2.88;;
29732;SDS011;16643;43.158;25.302;2023-07-29T07:48:28;3.88;;;2.90;;
29732;SDS011;16643;43.158;25.302;2023-07-29T07:50:54;4.93;;;2.53;;
29732;SDS011;16643;43.158;25.302;2023-07-29T07:53:20;4.88;;;2.90;;
29732;SDS011;16643;43.158;25.302;2023-07-29T07:55:46;3.05;;;2.35;;
29732;SDS011;16643;43.158;25.302;2023-07-29T07:58:11;3.85;;;2.90;;
29732;SDS011;16643;43.158;25.302;2023-07-29T08:00:37;4.65;;;2.67;;
29732;SDS011;16643;43.158;25.302;2023-07-29T08:03:03;4.03;;;2.95;;
29732;SDS011;16643;43.158;25.302;2023-07-29T08:05:29;3.65;;;2.85;;
29732;SDS011;16643;43.158;25.302;2023-07-29T08:07:55;6.38;;;2.70;;
29732;SDS011;16643;43.158;25.302;2023-07-29T08:10:21;4.82;;;3.08;;
29732;SDS011;16643;43.158;25.302;2023-07-29T08:12:46;6.03;;;3.28;;
29732;SDS011;16643;43.158;25.302;2023-07-29T08:15:12;4.70;;;3.20;;
29732;SDS011;16643;43.158;25.302;2023-07-29T08:17:38;6.63;;;3.15;;
29732;SDS011;16643;43.158;25.302;2023-07-29T08:20:03;5.75;;;2.85;;
29732;SDS011;16643;43.158;25.302;2023-07-29T08:22:29;4.10;;;2.90;;
29732;SDS011;16643;43.158;25.302;2023-07-29T08:24:55;5.72;;;3.00;;
29732;SDS011;16643;43.158;25.302;2023-07-29T08:27:20;5.13;;;3.05;;
29732;SDS011;16643;43.158;25.302;2023-07-29T08:29:46;5.93;;;2.95;;
29732;SDS011;16643;43.158;25.302;2023-07-29T08:32:12;6.40;;;3.13;;
29732;SDS011;16643;43.158;25.302;2023-07-29T08:34:37;4.15;;;3.10;;
29732;SDS011;16643;43.158;25.302;2023-07-29T08:37:03;5.03;;;3.30;;
29732;SDS011;16643;43.158;25.302;2023-07-29T08:39:29;8.63;;;3.40;;
29732;SDS011;16643;43.158;25.302;2023-07-29T08:42:01;5.95;;;3.50;;
29732;SDS011;16643;43.158;25.302;2023-07-29T08:44:41;4.40;;;3.13;;
29732;SDS011;16643;43.158;25.302;2023-07-29T08:47:08;5.80;;;2.80;;
29732;SDS011;16643;43.158;25.302;2023-07-29T08:49:34;4.10;;;2.95;;
29732;SDS011;16643;43.158;25.302;2023-07-29T08:54:27;6.30;;;3.20;;
29732;SDS011;16643;43.158;25.302;2023-07-29T08:56:53;3.72;;;2.47;;
29732;SDS011;16643;43.158;25.302;2023-07-29T08:59:19;4.57;;;2.85;;
29732;SDS011;16643;43.158;25.302;2023-07-29T09:01:45;4.00;;;2.72;;
29732;SDS011;16643;43.158;25.302;2023-07-29T09:04:12;4.38;;;2.63;;
29732;SDS011;16643;43.158;25.302;2023-07-29T09:06:39;4.10;;;2.63;;
29732;SDS011;16643;43.158;25.302;2023-07-29T09:09:05;9.52;;;4.80;;
29732;SDS011;16643;43.158;25.302;2023-07-29T09:11:33;5.65;;;3.58;;
29732;SDS011;16643;43.158;25.302;2023-07-29T09:13:59;3.83;;;2.83;;
29732;SDS011;16643;43.158;25.302;2023-07-29T09:16:24;4.07;;;2.42;;
29732;SDS011;16643;43.158;25.302;2023-07-29T09:18:51;6.28;;;2.88;;
29732;SDS011;16643;43.158;25.302;2023-07-29T09:21:23;6.25;;;3.80;;
29732;SDS011;16643;43.158;25.302;2023-07-29T09:23:54;5.95;;;3.17;;
29732;SDS011;16643;43.158;25.302;2023-07-29T09:26:23;4.80;;;2.83;;
29732;SDS011;16643;43.158;25.302;2023-07-29T09:28:51;5.18;;;2.72;;
29732;SDS011;16643;43.158;25.302;2023-07-29T09:31:19;5.20;;;2.42;;
29732;SDS011;16643;43.158;25.302;2023-07-29T09:33:47;4.10;;;2.50;;
29732;SDS011;16643;43.158;25.302;2023-07-29T09:36:13;5.95;;;2.83;;
29732;SDS011;16643;43.158;25.302;2023-07-29T09:38:39;2.95;;;2.30;;
29732;SDS011;16643;43.158;25.302;2023-07-29T09:41:05;5.32;;;2.70;;
29732;SDS011;16643;43.158;25.302;2023-07-29T09:43:32;4.93;;;2.92;;
29732;SDS011;16643;43.158;25.302;2023-07-29T09:46:02;3.17;;;2.83;;
29732;SDS011;16643;43.158;25.302;2023-07-29T09:48:32;3.95;;;3.00;;
29732;SDS011;16643;43.158;25.302;2023-07-29T09:50:59;4.05;;;3.10;;
29732;SDS011;16643;43.158;25.302;2023-07-29T09:53:25;4.35;;;3.05;;
29732;SDS011;16643;43.158;25.302;2023-07-29T09:55:52;4.18;;;2.47;;
29732;SDS011;16643;43.158;25.302;2023-07-29T09:58:26;4.18;;;2.60;;
29732;SDS011;16643;43.158;25.302;2023-07-29T10:00:53;6.32;;;2.90;;
29732;SDS011;16643;43.158;25.302;2023-07-29T10:03:19;3.67;;;2.70;;
29732;SDS011;16643;43.158;25.302;2023-07-29T10:05:46;3.60;;;2.85;;
29732;SDS011;16643;43.158;25.302;2023-07-29T10:08:12;4.32;;;2.78;;
29732;SDS011;16643;43.158;25.302;2023-07-29T10:10:41;2.97;;;2.40;;
29732;SDS011;16643;43.158;25.302;2023-07-29T10:13:07;2.88;;;2.50;;
29732;SDS011;16643;43.158;25.302;2023-07-29T10:15:34;4.18;;;2.63;;
29732;SDS011;16643;43.158;25.302;2023-07-29T10:18:01;3.28;;;2.45;;
29732;SDS011;16643;43.158;25.302;2023-07-29T10:20:28;6.18;;;3.53;;
29732;SDS011;16643;43.158;25.302;2023-07-29T10:22:56;5.68;;;2.30;;
29732;SDS011;16643;43.158;25.302;2023-07-29T10:25:25;5.20;;;2.92;;
29732;SDS011;16643;43.158;25.302;2023-07-29T10:28:06;4.15;;;3.00;;
29732;SDS011;16643;43.158;25.302;2023-07-29T10:30:32;3.90;;;2.60;;
29732;SDS011;16643;43.158;25.302;2023-07-29T10:33:01;3.35;;;2.55;;
29732;SDS011;16643;43.158;25.302;2023-07-29T10:35:28;6.53;;;3.22;;
29732;SDS011;16643;43.158;25.302;2023-07-29T10:37:54;3.30;;;2.95;;
29732;SDS011;16643;43.158;25.302;2023-07-29T10:40:20;3.42;;;2.60;;
29732;SDS011;16643;43.158;25.302;2023-07-29T10:43:06;3.42;;;2.53;;
29732;SDS011;16643;43.158;25.302;2023-07-29T10:45:38;3.38;;;2.80;;
29732;SDS011;16643;43.158;25.302;2023-07-29T10:48:10;4.68;;;2.50;;
29732;SDS011;16643;43.158;25.302;2023-07-29T10:50:37;4.53;;;2.70;;
29732;SDS011;16643;43.158;25.302;2023-07-29T10:53:02;4.00;;;2.45;;
29732;SDS011;16643;43.158;25.302;2023-07-29T10:55:35;3.47;;;2.75;;
29732;SDS011;16643;43.158;25.302;2023-07-29T10:58:13;3.40;;;2.65;;
29732;SDS011;16643;43.158;25.302;2023-07-29T11:00:43;3.22;;;2.67;;
29732;SDS011;16643;43.158;25.302;2023-07-29T11:03:09;2.70;;;2.40;;
29732;SDS011;16643;43.158;25.302;2023-07-29T11:08:19;3.17;;;2.22;;
29732;SDS011;16643;43.158;25.302;2023-07-29T11:13:33;3.50;;;2.63;;
29732;SDS011;16643;43.158;25.302;2023-07-29T11:16:03;3.28;;;2.67;;
29732;SDS011;16643;43.158;25.302;2023-07-29T11:20:59;5.10;;;3.40;;
29732;SDS011;16643;43.158;25.302;2023-07-29T11:23:29;3.85;;;2.60;;
29732;SDS011;16643;43.158;25.302;2023-07-29T11:25:59;5.95;;;3.97;;
29732;SDS011;16643;43.158;25.302;2023-07-29T11:28:26;4.35;;;3.20;;
29732;SDS011;16643;43.158;25.302;2023-07-29T11:30:53;3.88;;;2.55;;
29732;SDS011;16643;43.158;25.302;2023-07-29T11:33:24;4.60;;;2.95;;
29732;SDS011;16643;43.158;25.302;2023-07-29T11:35:51;5.35;;;3.13;;
29732;SDS011;16643;43.158;25.302;2023-07-29T11:38:18;3.83;;;2.70;;
29732;SDS011;16643;43.158;25.302;2023-07-29T11:40:55;4.85;;;2.97;;
29732;SDS011;16643;43.158;25.302;2023-07-29T11:43:21;4.53;;;3.00;;
29732;SDS011;16643;43.158;25.302;2023-07-29T11:45:46;3.45;;;2.60;;
29732;SDS011;16643;43.158;25.302;2023-07-29T11:48:12;4.88;;;2.47;;
29732;SDS011;16643;43.158;25.302;2023-07-29T11:50:38;4.28;;;2.63;;
29732;SDS011;16643;43.158;25.302;2023-07-29T11:53:03;2.78;;;2.13;;
29732;SDS011;16643;43.158;25.302;2023-07-29T11:55:30;5.53;;;2.50;;
29732;SDS011;16643;43.158;25.302;2023-07-29T11:57:56;3.83;;;2.83;;
29732;SDS011;16643;43.158;25.302;2023-07-29T12:00:22;3.30;;;2.72;;
29732;SDS011;16643;43.158;25.302;2023-07-29T12:02:48;3.80;;;2.70;;
29732;SDS011;16643;43.158;25.302;2023-07-29T12:05:16;4.40;;;2.67;;
29732;SDS011;16643;43.158;25.302;2023-07-29T12:07:44;4.95;;;2.83;;
29732;SDS011;16643;43.158;25.302;2023-07-29T12:10:11;3.63;;;2.80;;
29732;SDS011;16643;43.158;25.302;2023-07-29T12:12:46;3.45;;;2.67;;
29732;SDS011;16643;43.158;25.302;2023-07-29T12:15:13;3.35;;;2.30;;
29732;SDS011;16643;43.158;25.302;2023-07-29T12:17:47;3.80;;;2.60;;
29732;SDS011;16643;43.158;25.302;2023-07-29T12:20:13;2.65;;;2.30;;
29732;SDS011;16643;43.158;25.302;2023-07-29T12:22:38;4.28;;;2.40;;
29732;SDS011;16643;43.158;25.302;2023-07-29T12:25:05;3.45;;;2.70;;
29732;SDS011;16643;43.158;25.302;2023-07-29T12:27:31;3.07;;;2.30;;
29732;SDS011;16643;43.158;25.302;2023-07-29T12:29:57;3.83;;;2.78;;
29732;SDS011;16643;43.158;25.302;2023-07-29T12:32:24;2.63;;;2.08;;
29732;SDS011;16643;43.158;25.302;2023-07-29T12:34:52;3.75;;;2.47;;
29732;SDS011;16643;43.158;25.302;2023-07-29T12:37:19;4.05;;;2.30;;
29732;SDS011;16643;43.158;25.302;2023-07-29T12:39:44;2.92;;;2.38;;
29732;SDS011;16643;43.158;25.302;2023-07-29T12:42:10;2.95;;;2.20;;
29732;SDS011;16643;43.158;25.302;2023-07-29T12:44:37;3.30;;;2.67;;
29732;SDS011;16643;43.158;25.302;2023-07-29T12:47:04;3.65;;;2.42;;
29732;SDS011;16643;43.158;25.302;2023-07-29T12:49:31;3.25;;;2.53;;
29732;SDS011;16643;43.158;25.302;2023-07-29T12:51:57;3.67;;;2.28;;
29732;SDS011;16643;43.158;25.302;2023-07-29T12:54:24;3.15;;;2.45;;
29732;SDS011;16643;43.158;25.302;2023-07-29T12:56:49;5.68;;;2.58;;
29732;SDS011;16643;43.158;25.302;2023-07-29T12:59:15;3.78;;;2.65;;
29732;SDS011;16643;43.158;25.302;2023-07-29T13:01:41;3.67;;;2.35;;
29732;SDS011;16643;43.158;25.302;2023-07-29T13:04:09;2.38;;;2.15;;
29732;SDS011;16643;43.158;25.302;2023-07-29T13:06:35;5.40;;;2.80;;
29732;SDS011;16643;43.158;25.302;2023-07-29T13:09:01;3.10;;;2.45;;
29732;SDS011;16643;43.158;25.302;2023-07-29T13:11:27;3.65;;;2.65;;
29732;SDS011;16643;43.158;25.302;2023-07-29T13:13:52;4.85;;;2.92;;
29732;SDS011;16643;43.158;25.302;2023-07-29T13:16:18;3.20;;;2.40;;
29732;SDS011;16643;43.158;25.302;2023-07-29T13:18:43;4.80;;;2.70;;
29732;SDS011;16643;43.158;25.302;2023-07-29T13:21:09;3.63;;;2.58;;
29732;SDS011;16643;43.158;25.302;2023-07-29T13:23:35;3.92;;;2.45;;
29732;SDS011;16643;43.158;25.302;2023-07-29T13:26:01;3.58;;;2.60;;
29732;SDS011;16643;43.158;25.302;2023-07-29T13:28:27;3.55;;;2.40;;
29732;SDS011;16643;43.158;25.302;2023-07-29T13:30:53;5.63;;;2.92;;
29732;SDS011;16643;43.158;25.302;2023-07-29T13:33:18;4.40;;;2.20;;
29732;SDS011;16643;43.158;25.302;2023-07-29T13:35:44;2.88;;;2.20;;
29732;SDS011;16643;43.158;25.302;2023-07-29T13:38:10;3.38;;;2.35;;
29732;SDS011;16643;43.158;25.302;2023-07-29T13:40:36;3.78;;;2.70;;
29732;SDS011;16643;43.158;25.302;2023-07-29T13:43:02;3.35;;;2.53;;
29732;SDS011;16643;43.158;25.302;2023-07-29T13:45:28;3.63;;;2.60;;
29732;SDS011;16643;43.158;25.302;2023-07-29T13:47:53;3.05;;;2.30;;
29732;SDS011;16643;43.158;25.302;2023-07-29T13:50:19;3.17;;;2.55;;
29732;SDS011;16643;43.158;25.302;2023-07-29T13:52:45;3.67;;;2.50;;
29732;SDS011;16643;43.158;25.302;2023-07-29T13:55:11;3.15;;;2.30;;
29732;SDS011;16643;43.158;25.302;2023-07-29T13:57:37;4.72;;;2.78;;
29732;SDS011;16643;43.158;25.302;2023-07-29T14:00:05;3.72;;;2.55;;
29732;SDS011;16643;43.158;25.302;2023-07-29T14:02:31;3.33;;;2.43;;
29732;SDS011;16643;43.158;25.302;2023-07-29T14:04:56;3.20;;;2.40;;
29732;SDS011;16643;43.158;25.302;2023-07-29T14:07:22;3.88;;;2.40;;
29732;SDS011;16643;43.158;25.302;2023-07-29T14:09:48;3.88;;;3.17;;
29732;SDS011;16643;43.158;25.302;2023-07-29T14:12:14;5.18;;;2.75;;
29732;SDS011;16643;43.158;25.302;2023-07-29T14:14:42;3.92;;;2.50;;
29732;SDS011;16643;43.158;25.302;2023-07-29T14:17:08;3.92;;;2.65;;
29732;SDS011;16643;43.158;25.302;2023-07-29T14:19:35;5.30;;;3.22;;
29732;SDS011;16643;43.158;25.302;2023-07-29T14:22:01;3.83;;;2.80;;
29732;SDS011;16643;43.158;25.302;2023-07-29T14:24:26;3.65;;;2.65;;
29732;SDS011;16643;43.158;25.302;2023-07-29T14:26:52;3.03;;;2.50;;
29732;SDS011;16643;43.158;25.302;2023-07-29T14:29:17;4.65;;;2.50;;
29732;SDS011;16643;43.158;25.302;2023-07-29T14:31:43;4.07;;;2.30;;
29732;SDS011;16643;43.158;25.302;2023-07-29T14:34:09;3.15;;;2.53;;
29732;SDS011;16643;43.158;25.302;2023-07-29T14:36:35;6.45;;;2.88;;
29732;SDS011;16643;43.158;25.302;2023-07-29T14:39:02;2.75;;;2.08;;
29732;SDS011;16643;43.158;25.302;2023-07-29T14:41:27;4.03;;;2.38;;
29732;SDS011;16643;43.158;25.302;2023-07-29T14:43:53;4.47;;;2.30;;